Hauptseite
METAR-TAF:

METAR-TAF

Flughäfen :

Memmingen, Deutschland

Breite: 47-59-33N, Länge: 10-14-37E, Höhe: 633 m

Beobachtung

Neuester Wetterbericht von vor 3 Stunden und 44 Minuten, um 20:50 UTC
Wind 6 kt aus Nordost
Temperatur 5°C
Luftfeuchtigkeit 100%
Luftdruck 1028 hPa
Sichtweite: 0400 m
Nebel

METAR: EDJA 142050Z 05006KT 0400 R06/0900N FG VV/// 05/05 Q1028

Zeit: 01:34 (00:34 UTC)

Prognose

Neuester Wetterbericht von vor 7 Stunden und 34 Minuten, um 17:00 UTC
Gültige Prognose vom 14 um 18 UTC bis 15 um 03 UTC
Wind 4 kt aus Ost/Nordost
Sichtweite: 0700 m
Aufgelockert bewölkt in der Höhe von 100 ft
Geschlossene Wolkendecke in der Höhe von 200 ft
Nebel
Zeitweise
vom 14 um 18 UTC bis 15 um 03 UTC
Sichtweite: 0300 m
in der Höhe von 100 ft
Nebel

TAF: EDJA 141700Z 1418/1503 07004KT 0700 FG SCT001 OVC002 TEMPO 1418/1503 0300 FG VV001

Wetterbeobachtungen und Prognosen von mehr als 4000 Flughäfen (METAR und TAF Bericht).

Die verfügbaren Stationen werden durch gelbe und rote Markierungen auf der Karte dargestellt.

Führen Sie die Maus auf sie, um den Namen der Station zu sehen.

Darauf klicken, um die Beobachtung von Wetterbeobachtungen und Prognosen zu sehen.

Um die Karte zu ändern : klicken Sie auf den grünen Tasten mit einem schwarzen Kreuz Zum Vergrößern, auf den grünen Button mit einem Gedankenstrich zu verkleinern, oder auf die grünen Pfeile für benachbarte Karten.


METAR-TAF: